Time;durP1;ratioP1;P1;durP2;ratioP2;P2;SDS_P1;SDS_P2;PMS_P1;PMS_P2;Temp;Humidity;BMP_temperature;BMP_pressure;BME280_temperature;BME280_humidity;BME280_pressure;Samples;Min_cycle;Max_cycle;Signal;HPM_P1;HPM_P2
2023/09/19 00:02:22;;;;;;;309.67;297.80;;;14.50;99.90;;;;;;5112415;28;20450;-69
2023/09/19 00:04:49;;;;;;;345.97;332.07;;;14.40;99.90;;;;;;5112420;28;20483;-69
2023/09/19 00:07:17;;;;;;;315.43;303.33;;;14.50;99.90;;;;;;5112697;28;20544;-68
2023/09/19 00:09:44;;;;;;;337.07;323.73;;;14.50;99.90;;;;;;5112552;28;20950;-69
2023/09/19 00:12:10;;;;;;;342.33;328.83;;;14.40;99.90;;;;;;5112592;28;20444;-69
2023/09/19 00:14:37;;;;;;;384.87;369.07;;;14.40;99.90;;;;;;5112866;28;20449;-69
2023/09/19 00:17:08;;;;;;;411.60;394.47;;;14.40;99.90;;;;;;5112398;28;20460;-69
2023/09/19 00:19:34;;;;;;;409.80;392.40;;;14.40;99.90;;;;;;5112450;28;20477;-69
2023/09/19 00:22:02;;;;;;;439.13;419.67;;;14.40;99.90;;;;;;5112478;28;20453;-68
2023/09/19 00:24:29;;;;;;;454.27;434.07;;;14.30;99.90;;;;;;5112329;28;20452;-68
2023/09/19 00:26:56;;;;;;;407.53;390.03;;;14.40;99.90;;;;;;5112657;28;20970;-69
2023/09/19 00:29:23;;;;;;;389.43;372.77;;;14.40;99.90;;;;;;5112484;28;20445;-69
2023/09/19 00:31:50;;;;;;;393.17;376.73;;;14.50;99.90;;;;;;5112766;28;20470;-69
2023/09/19 00:34:20;;;;;;;355.43;340.20;;;14.50;99.90;;;;;;5112756;28;20805;-71
2023/09/19 00:36:47;;;;;;;346.13;331.97;;;14.50;99.90;;;;;;5112641;28;20450;-68
2023/09/19 00:39:14;;;;;;;303.00;290.80;;;14.50;99.90;;;;;;5112481;28;20461;-70
2023/09/19 00:41:40;;;;;;;269.53;259.60;;;14.50;99.90;;;;;;5112557;28;20453;-69
2023/09/19 00:44:09;;;;;;;257.80;248.40;;;14.50;99.90;;;;;;5115419;28;20452;-69
2023/09/19 00:46:36;;;;;;;227.83;218.73;;;14.50;99.90;;;;;;5116536;28;20575;-69
2023/09/19 00:49:04;;;;;;;231.47;222.67;;;14.50;99.90;;;;;;5116431;28;20455;-69
2023/09/19 00:51:32;;;;;;;215.27;207.40;;;14.50;99.90;;;;;;5115982;28;20456;-69
2023/09/19 00:54:00;;;;;;;218.60;210.80;;;14.60;99.90;;;;;;5116224;28;20449;-71
2023/09/19 00:56:27;;;;;;;200.70;193.60;;;14.60;99.90;;;;;;5116404;28;20486;-69
2023/09/19 00:58:54;;;;;;;211.03;203.73;;;14.50;99.90;;;;;;5116108;28;20843;-69
2023/09/19 01:01:21;;;;;;;206.67;199.23;;;14.50;99.90;;;;;;5116072;28;20456;-70
2023/09/19 01:03:48;;;;;;;179.47;172.67;;;14.40;99.90;;;;;;5116104;28;20554;-70
2023/09/19 01:06:15;;;;;;;149.33;143.63;;;14.50;99.90;;;;;;5115830;28;20833;-70
2023/09/19 01:08:43;;;;;;;152.60;147.00;;;14.40;99.90;;;;;;5116175;28;20528;-70
2023/09/19 01:11:21;;;;;;;137.30;131.40;;;14.50;99.90;;;;;;5115711;28;20536;-69
2023/09/19 01:13:58;;;;;;;147.33;141.67;;;14.50;99.90;;;;;;5115890;28;20444;-69
2023/09/19 01:16:35;;;;;;;150.93;145.13;;;14.50;99.90;;;;;;5115793;28;20442;-69
2023/09/19 01:19:21;;;;;;;137.43;132.00;;;14.50;99.90;;;;;;5115919;28;20478;-69
2023/09/19 01:21:56;;;;;;;139.70;133.57;;;14.40;99.90;;;;;;5115601;28;20538;-69
2023/09/19 01:25:05;;;;;;;117.47;112.97;;;14.40;99.90;;;;;;5115788;28;20479;-69
2023/09/19 01:28:03;;;;;;;134.33;129.10;;;14.40;99.90;;;;;;5115875;28;20441;-69
2023/09/19 01:30:37;;;;;;;120.67;116.07;;;14.40;99.90;;;;;;5115459;28;20453;-70
2023/09/19 01:33:06;;;;;;;71.20;67.90;;;14.40;99.90;;;;;;5115656;28;20460;-69
2023/09/19 01:35:34;;;;;;;75.40;72.33;;;14.50;99.90;;;;;;5115400;28;20473;-70
2023/09/19 01:38:01;;;;;;;65.30;62.50;;;14.50;99.90;;;;;;5115445;28;20457;-70
2023/09/19 01:40:28;;;;;;;65.90;63.00;;;14.50;99.90;;;;;;5115330;28;20540;-69
2023/09/19 01:42:59;;;;;;;67.40;64.13;;;14.50;99.90;;;;;;5115293;28;20900;-69
2023/09/19 01:45:40;;;;;;;61.20;58.10;;;14.40;99.90;;;;;;5115356;28;20487;-69
2023/09/19 01:48:23;;;;;;;56.60;53.73;;;14.50;99.90;;;;;;5115103;28;20457;-69
2023/09/19 01:50:59;;;;;;;42.63;40.50;;;14.40;99.90;;;;;;5114989;28;20557;-70
2023/09/19 01:53:31;;;;;;;50.07;48.00;;;14.30;99.90;;;;;;5114990;28;20954;-69
2023/09/19 01:55:59;;;;;;;46.57;44.27;;;14.30;99.90;;;;;;5114408;28;20449;-70
2023/09/19 01:58:34;;;;;;;46.00;43.60;;;14.30;99.90;;;;;;5114880;28;20457;-69
2023/09/19 02:01:05;;;;;;;46.93;44.37;;;14.40;99.90;;;;;;5114809;28;20818;-71
2023/09/19 02:03:34;;;;;;;52.13;49.70;;;14.30;99.90;;;;;;5115050;28;20450;-69
2023/09/19 02:06:02;;;;;;;58.93;55.47;;;14.20;99.90;;;;;;5114797;28;20483;-70
2023/09/19 02:08:31;;;;;;;66.17;62.67;;;14.30;99.90;;;;;;5114618;28;20452;-69
2023/09/19 02:10:58;;;;;;;55.77;53.27;;;14.20;99.90;;;;;;5114296;28;20453;-69
2023/09/19 02:13:28;;;;;;;67.77;64.80;;;14.20;99.90;;;;;;5114654;28;20537;-69
2023/09/19 02:15:55;;;;;;;62.90;60.07;;;14.20;99.90;;;;;;5114680;28;20578;-70
2023/09/19 02:18:24;;;;;;;69.77;66.87;;;14.10;99.90;;;;;;5114583;28;20451;-69
2023/09/19 02:20:52;;;;;;;63.20;60.20;;;14.10;99.90;;;;;;5114303;28;20460;-71
2023/09/19 02:23:19;;;;;;;35.23;33.00;;;14.10;99.90;;;;;;5114439;28;20684;-69
2023/09/19 02:25:53;;;;;;;38.83;36.70;;;14.10;99.90;;;;;;5114282;28;20477;-70
2023/09/19 02:28:20;;;;;;;37.97;35.53;;;14.10;99.90;;;;;;5114521;28;20485;-70
2023/09/19 02:30:50;;;;;;;38.40;36.20;;;14.00;99.90;;;;;;5114169;28;20450;-68
2023/09/19 02:33:17;;;;;;;33.33;31.03;;;13.90;99.90;;;;;;5114314;28;20484;-68
2023/09/19 02:35:46;;;;;;;35.37;33.17;;;13.80;99.90;;;;;;5114063;28;20986;-69
2023/09/19 02:38:12;;;;;;;49.20;46.43;;;13.90;99.90;;;;;;5114152;28;20510;-69
2023/09/19 02:40:40;;;;;;;54.57;51.40;;;13.90;99.90;;;;;;5114302;28;20474;-69
2023/09/19 02:43:08;;;;;;;65.10;61.77;;;13.90;99.90;;;;;;5114020;28;20455;-69
2023/09/19 02:45:35;;;;;;;79.30;75.13;;;13.90;99.90;;;;;;5114072;28;20529;-70
2023/09/19 02:48:04;;;;;;;69.70;66.00;;;13.90;99.90;;;;;;5114089;28;20527;-70
2023/09/19 02:50:31;;;;;;;68.13;64.17;;;13.80;99.90;;;;;;5113567;28;20448;-69
2023/09/19 02:52:59;;;;;;;62.57;60.00;;;13.70;99.90;;;;;;5114210;28;20448;-70
2023/09/19 02:55:26;;;;;;;59.23;56.50;;;13.80;99.90;;;;;;5113819;28;20541;-69
2023/09/19 02:57:55;;;;;;;35.43;33.30;;;13.80;99.90;;;;;;5113261;28;20481;-70
2023/09/19 03:00:23;;;;;;;23.40;21.90;;;13.50;99.90;;;;;;5113172;28;20813;-69
2023/09/19 03:02:50;;;;;;;18.40;16.90;;;13.70;99.90;;;;;;5113107;28;20484;-69
2023/09/19 03:05:17;;;;;;;16.07;14.37;;;13.70;99.90;;;;;;5113266;28;20454;-69
2023/09/19 03:07:45;;;;;;;17.27;15.60;;;13.80;99.90;;;;;;5112546;28;20441;-69
2023/09/19 03:10:15;;;;;;;16.23;14.70;;;13.80;99.90;;;;;;5113451;28;20955;-69
2023/09/19 03:12:42;;;;;;;20.20;18.60;;;13.90;99.90;;;;;;5113668;28;20448;-69
2023/09/19 03:15:09;;;;;;;30.93;28.10;;;14.00;99.90;;;;;;5113648;28;20452;-69
2023/09/19 03:17:36;;;;;;;40.00;37.80;;;14.10;99.90;;;;;;5113457;28;20480;-70
2023/09/19 03:20:07;;;;;;;32.80;30.80;;;14.10;99.90;;;;;;5113279;28;20449;-70
2023/09/19 03:22:34;;;;;;;42.40;38.90;;;14.20;99.90;;;;;;5113641;28;21028;-69
2023/09/19 03:25:01;;;;;;;49.17;47.07;;;14.20;99.90;;;;;;5113516;28;20539;-68
2023/09/19 03:27:29;;;;;;;44.13;41.83;;;14.20;99.90;;;;;;5113527;28;20520;-68
2023/09/19 03:29:56;;;;;;;47.37;44.77;;;14.20;99.90;;;;;;5112858;28;20531;-68
2023/09/19 03:32:23;;;;;;;55.87;53.00;;;14.10;99.90;;;;;;5113525;28;20508;-69
2023/09/19 03:34:49;;;;;;;56.00;53.60;;;14.10;99.90;;;;;;5113554;28;20494;-70
2023/09/19 03:37:17;;;;;;;58.13;55.00;;;14.10;99.90;;;;;;5112961;28;20476;-68
2023/09/19 03:39:44;;;;;;;42.07;39.80;;;14.00;99.90;;;;;;5113435;28;20449;-70
2023/09/19 03:42:10;;;;;;;50.73;47.60;;;14.00;99.90;;;;;;5113318;28;20535;-69
2023/09/19 03:44:39;;;;;;;39.23;37.33;;;14.00;99.90;;;;;;5112812;28;20449;-68
2023/09/19 03:47:06;;;;;;;38.23;35.63;;;14.00;99.90;;;;;;5112946;28;20539;-69
2023/09/19 03:49:33;;;;;;;37.17;34.83;;;14.00;99.90;;;;;;5112806;28;20932;-69
2023/09/19 03:52:00;;;;;;;38.90;36.90;;;14.00;99.90;;;;;;5112938;28;20449;-69
2023/09/19 03:54:27;;;;;;;39.50;37.23;;;14.00;99.90;;;;;;5113077;28;20449;-69
2023/09/19 03:56:54;;;;;;;44.87;42.60;;;14.00;99.90;;;;;;5113134;28;20473;-68
2023/09/19 03:59:21;;;;;;;41.83;39.77;;;14.00;99.90;;;;;;5113070;28;20451;-70
2023/09/19 04:01:50;;;;;;;47.10;44.10;;;14.00;99.90;;;;;;5112655;28;20456;-70
2023/09/19 04:04:18;;;;;;;49.60;47.07;;;14.00;99.90;;;;;;5112841;28;21004;-69
2023/09/19 04:06:45;;;;;;;55.83;52.77;;;13.90;99.90;;;;;;5113274;28;20448;-69
2023/09/19 04:09:13;;;;;;;64.83;61.70;;;14.00;99.90;;;;;;5113055;28;20472;-69
2023/09/19 04:11:39;;;;;;;61.60;58.40;;;14.00;99.90;;;;;;5112933;28;20471;-69
2023/09/19 04:14:06;;;;;;;45.87;43.53;;;14.00;99.90;;;;;;5112960;28;20489;-69
2023/09/19 04:16:33;;;;;;;45.20;42.53;;;14.00;99.90;;;;;;5112819;28;20468;-69
2023/09/19 04:19:02;;;;;;;51.43;48.40;;;13.90;99.90;;;;;;5115580;28;21139;-69
2023/09/19 04:21:29;;;;;;;36.97;34.67;;;14.00;99.90;;;;;;5116713;28;20533;-69
2023/09/19 04:23:56;;;;;;;33.10;31.27;;;14.10;99.90;;;;;;5117090;28;20471;-70
2023/09/19 04:26:23;;;;;;;28.83;26.57;;;14.10;99.90;;;;;;5117096;28;20865;-69
2023/09/19 04:28:51;;;;;;;29.10;27.60;;;14.10;99.90;;;;;;5116814;28;20444;-70
2023/09/19 04:31:19;;;;;;;30.63;28.20;;;14.10;99.90;;;;;;5116562;28;20452;-69
2023/09/19 04:33:46;;;;;;;24.67;23.03;;;14.10;99.90;;;;;;5116919;28;20491;-70
2023/09/19 04:36:14;;;;;;;25.83;23.97;;;14.10;99.90;;;;;;5116996;28;20472;-69
2023/09/19 04:38:41;;;;;;;24.87;23.10;;;14.10;99.90;;;;;;5116497;28;20453;-68
2023/09/19 04:41:08;;;;;;;23.57;22.27;;;14.10;99.90;;;;;;5116268;28;20440;-69
2023/09/19 04:43:35;;;;;;;21.97;20.30;;;14.10;99.90;;;;;;5116117;28;20444;-69
2023/09/19 04:46:03;;;;;;;21.73;20.17;;;14.00;99.90;;;;;;5116547;28;20448;-70
2023/09/19 04:48:30;;;;;;;25.20;23.20;;;14.00;99.90;;;;;;5116437;28;20510;-69
2023/09/19 04:50:56;;;;;;;31.17;29.17;;;13.90;99.90;;;;;;5116195;28;20931;-71
2023/09/19 04:53:25;;;;;;;25.90;24.03;;;13.90;99.90;;;;;;5116091;28;20452;-71
2023/09/19 04:55:55;;;;;;;31.13;29.07;;;13.90;99.90;;;;;;5116425;28;20449;-70
2023/09/19 04:58:22;;;;;;;25.17;22.30;;;13.90;99.90;;;;;;5116218;28;20449;-71
2023/09/19 05:00:50;;;;;;;25.80;24.30;;;13.90;99.90;;;;;;5115882;28;20533;-70
2023/09/19 05:03:19;;;;;;;21.80;20.13;;;13.90;99.90;;;;;;5116112;28;20449;-71
2023/09/19 05:05:46;;;;;;;17.80;16.27;;;13.90;99.90;;;;;;5116346;28;20488;-70
2023/09/19 05:08:14;;;;;;;13.40;12.27;;;13.90;99.90;;;;;;5115625;28;20448;-70
2023/09/19 05:10:42;;;;;;;13.10;10.47;;;13.90;99.90;;;;;;5115933;28;20451;-70
2023/09/19 05:13:10;;;;;;;13.60;10.50;;;13.90;99.90;;;;;;5115547;28;20573;-70
2023/09/19 05:15:37;;;;;;;14.57;9.10;;;14.00;99.90;;;;;;5115681;28;20452;-71
2023/09/19 05:18:05;;;;;;;11.97;7.73;;;14.00;99.90;;;;;;5115611;28;20584;-68
2023/09/19 05:20:35;;;;;;;16.13;6.87;;;14.00;99.90;;;;;;5115345;28;20444;-69
2023/09/19 05:23:03;;;;;;;18.77;9.87;;;14.00;99.90;;;;;;5115805;28;20444;-70
2023/09/19 05:25:30;;;;;;;13.57;8.20;;;14.00;99.90;;;;;;5115705;28;20452;-70
2023/09/19 05:28:00;;;;;;;17.30;7.87;;;14.10;99.90;;;;;;5115959;28;20449;-70
2023/09/19 05:30:29;;;;;;;14.27;6.10;;;14.10;99.90;;;;;;5114738;28;20444;-70
2023/09/19 05:32:56;;;;;;;13.60;7.57;;;14.20;99.90;;;;;;5115625;28;20931;-70
2023/09/19 05:35:24;;;;;;;10.73;4.70;;;14.20;99.90;;;;;;5115750;28;20456;-69
2023/09/19 05:37:52;;;;;;;17.93;4.80;;;14.20;99.90;;;;;;5115264;28;20483;-70
2023/09/19 05:40:19;;;;;;;14.67;4.60;;;14.30;99.90;;;;;;5115136;28;20471;-70
2023/09/19 05:42:46;;;;;;;14.30;4.70;;;14.40;99.90;;;;;;5115223;28;20456;-69
2023/09/19 05:45:18;;;;;;;9.57;4.27;;;14.40;99.90;;;;;;5114723;28;20978;-70
2023/09/19 05:47:46;;;;;;;17.17;4.30;;;14.50;99.90;;;;;;5114907;28;20452;-69
2023/09/19 05:50:14;;;;;;;12.07;5.30;;;14.50;99.90;;;;;;5115126;28;20533;-70
2023/09/19 05:52:44;;;;;;;8.90;4.00;;;14.60;99.90;;;;;;5115142;28;20448;-69
2023/09/19 05:55:11;;;;;;;15.13;4.40;;;14.60;99.90;;;;;;5114734;28;20464;-70
2023/09/19 05:57:38;;;;;;;9.93;5.77;;;14.60;99.90;;;;;;5115152;28;20567;-69
2023/09/19 06:00:08;;;;;;;12.47;4.10;;;14.60;99.90;;;;;;5114964;28;20461;-70
2023/09/19 06:02:37;;;;;;;9.30;4.00;;;14.60;99.90;;;;;;5115084;28;20461;-70
2023/09/19 06:05:06;;;;;;;17.37;5.07;;;14.60;99.90;;;;;;5114803;28;20451;-70
2023/09/19 06:07:36;;;;;;;10.23;4.93;;;14.60;99.90;;;;;;5114846;28;20494;-70
2023/09/19 06:10:05;;;;;;;10.53;4.60;;;14.60;99.90;;;;;;5114595;28;20484;-70
2023/09/19 06:12:32;;;;;;;9.60;4.67;;;14.60;99.90;;;;;;5114583;28;20531;-70
2023/09/19 06:15:00;;;;;;;22.63;6.07;;;14.70;99.90;;;;;;5113748;28;20459;-70
2023/09/19 06:17:27;;;;;;;8.67;4.43;;;14.80;99.90;;;;;;5114546;28;20473;-71
2023/09/19 06:19:55;;;;;;;18.13;5.43;;;14.80;99.90;;;;;;5114306;28;21007;-70
2023/09/19 06:22:23;;;;;;;11.30;5.03;;;14.90;99.90;;;;;;5114663;28;20975;-71
2023/09/19 06:24:50;;;;;;;17.13;5.37;;;14.90;99.90;;;;;;5114666;28;20910;-70
2023/09/19 06:27:17;;;;;;;19.47;6.10;;;14.90;99.90;;;;;;5114492;28;20453;-70
2023/09/19 06:29:44;;;;;;;12.20;4.83;;;14.90;99.90;;;;;;5114506;28;20797;-71
2023/09/19 06:32:11;;;;;;;12.20;4.07;;;14.90;99.90;;;;;;5114141;28;20444;-70
2023/09/19 06:34:38;;;;;;;12.80;5.00;;;15.00;99.90;;;;;;5114323;28;20452;-70
2023/09/19 06:37:07;;;;;;;7.70;5.07;;;15.00;99.90;;;;;;5112070;28;20462;-69
2023/09/19 06:39:33;;;;;;;12.27;5.50;;;15.10;99.90;;;;;;5113883;28;20456;-69
2023/09/19 06:42:01;;;;;;;11.00;6.37;;;15.10;99.90;;;;;;5113622;28;20826;-70
2023/09/19 06:44:29;;;;;;;9.53;5.10;;;15.10;99.90;;;;;;5113716;28;20449;-70
2023/09/19 06:46:56;;;;;;;14.23;4.60;;;15.20;99.90;;;;;;5113562;28;20941;-70
2023/09/19 06:49:23;;;;;;;14.40;4.37;;;15.30;99.90;;;;;;5113730;28;20533;-70
2023/09/19 06:51:50;;;;;;;16.23;5.10;;;15.40;99.90;;;;;;5113375;28;20506;-70
2023/09/19 06:54:18;;;;;;;16.47;6.17;;;15.40;99.90;;;;;;5113606;28;20441;-70
2023/09/19 06:56:45;;;;;;;12.53;5.07;;;15.50;99.90;;;;;;5113638;28;20489;-68
2023/09/19 06:59:14;;;;;;;12.90;4.83;;;15.50;99.90;;;;;;5113673;28;20447;-69
2023/09/19 07:01:41;;;;;;;15.30;4.47;;;15.60;99.90;;;;;;5113529;28;20459;-69
2023/09/19 07:04:08;;;;;;;12.07;3.60;;;15.60;99.90;;;;;;5113430;28;20805;-69
2023/09/19 07:06:35;;;;;;;11.13;5.03;;;15.70;99.90;;;;;;5113706;28;20451;-70
2023/09/19 07:09:02;;;;;;;11.00;3.50;;;15.80;99.90;;;;;;5113416;28;20451;-69
2023/09/19 07:11:31;;;;;;;9.10;3.13;;;15.90;99.90;;;;;;5113054;28;20445;-70
2023/09/19 07:13:58;;;;;;;11.97;3.80;;;15.90;99.90;;;;;;5112632;28;20837;-70
2023/09/19 07:16:29;;;;;;;11.70;3.83;;;16.00;99.90;;;;;;5113459;28;20447;-69
2023/09/19 07:18:56;;;;;;;11.27;3.00;;;16.00;99.90;;;;;;5113259;28;20472;-70
2023/09/19 07:21:23;;;;;;;15.33;4.80;;;16.10;99.90;;;;;;5112986;28;20922;-69
2023/09/19 07:23:50;;;;;;;11.90;3.10;;;16.20;99.90;;;;;;5113277;28;20445;-70
2023/09/19 07:26:17;;;;;;;12.30;2.97;;;16.20;99.90;;;;;;5113166;28;20450;-70
2023/09/19 07:28:45;;;;;;;10.60;3.10;;;16.30;99.90;;;;;;5113384;28;20450;-70
2023/09/19 07:31:14;;;;;;;17.03;4.77;;;16.30;99.90;;;;;;5112974;28;20484;-69
2023/09/19 07:33:41;;;;;;;13.35;4.10;;;16.40;99.90;;;;;;5112479;28;20504;-68
2023/09/19 07:36:13;;;;;;;14.03;4.03;;;16.50;99.90;;;;;;5113163;28;20201;-69
2023/09/19 07:38:40;;;;;;;11.20;2.30;;;16.60;99.90;;;;;;5113120;28;20475;-70
2023/09/19 07:41:08;;;;;;;10.30;3.20;;;16.80;99.90;;;;;;5113288;28;20451;-70
2023/09/19 07:43:35;;;;;;;13.13;2.73;;;16.90;99.90;;;;;;5112104;28;21010;-69
2023/09/19 07:46:07;;;;;;;11.83;3.83;;;16.80;99.90;;;;;;5112720;28;20494;-70
2023/09/19 07:48:34;;;;;;;12.00;3.30;;;16.80;99.90;;;;;;5113200;28;20900;-68
2023/09/19 07:51:04;;;;;;;10.23;3.50;;;16.90;99.90;;;;;;5112815;28;21124;-69
2023/09/19 07:53:34;;;;;;;12.47;3.73;;;16.90;99.90;;;;;;5112463;28;20473;-70
2023/09/19 07:56:05;;;;;;;8.17;2.30;;;17.00;99.90;;;;;;5113462;28;20546;-71
2023/09/19 07:58:33;;;;;;;7.60;3.00;;;17.00;99.90;;;;;;5112953;28;20523;-70
2023/09/19 08:01:06;;;;;;;11.83;3.60;;;17.00;99.90;;;;;;5112907;28;20451;-70
2023/09/19 08:03:33;;;;;;;14.10;3.20;;;17.10;99.90;;;;;;5113107;28;20445;-70
2023/09/19 08:06:00;;;;;;;12.60;2.87;;;17.20;99.90;;;;;;5112968;28;20446;-70
2023/09/19 08:08:27;;;;;;;11.93;3.07;;;17.30;99.90;;;;;;5113076;28;20444;-71
2023/09/19 08:10:56;;;;;;;13.70;3.77;;;17.40;99.90;;;;;;5112883;28;20536;-70
2023/09/19 08:13:23;;;;;;;11.93;3.70;;;17.50;99.90;;;;;;5112993;28;20494;-70
2023/09/19 08:15:50;;;;;;;8.97;3.00;;;17.70;99.90;;;;;;5112962;28;20454;-69
2023/09/19 08:18:18;;;;;;;8.60;3.13;;;17.70;99.90;;;;;;5112515;28;20477;-69
2023/09/19 08:20:50;;;;;;;13.13;2.93;;;17.80;99.90;;;;;;5112116;28;20477;-69
2023/09/19 08:23:18;;;;;;;20.67;4.73;;;17.90;99.90;;;;;;5112377;28;20456;-70
2023/09/19 08:25:45;;;;;;;9.77;2.90;;;17.90;99.90;;;;;;5112592;28;20576;-69
2023/09/19 08:28:17;;;;;;;11.97;3.20;;;17.90;99.90;;;;;;5113144;28;20441;-69
2023/09/19 08:30:44;;;;;;;12.20;3.20;;;18.10;99.90;;;;;;5112411;28;20809;-69
2023/09/19 08:33:11;;;;;;;10.83;3.33;;;18.40;99.90;;;;;;5112438;28;20457;-69
2023/09/19 08:35:39;;;;;;;9.00;2.50;;;18.80;99.90;;;;;;5112611;28;20445;-69
2023/09/19 08:38:06;;;;;;;11.27;3.47;;;18.90;99.90;;;;;;5112226;28;20480;-69
2023/09/19 08:40:34;;;;;;;11.57;3.23;;;19.10;99.90;;;;;;5112517;28;20538;-69
2023/09/19 08:43:01;;;;;;;10.13;2.93;;;19.10;99.90;;;;;;5112801;28;20457;-71
2023/09/19 08:45:28;;;;;;;10.33;2.87;;;19.10;99.90;;;;;;5112612;28;20447;-70
2023/09/19 08:48:02;;;;;;;10.30;2.67;;;19.10;99.90;;;;;;5112947;28;20532;-70
2023/09/19 08:50:30;;;;;;;10.83;2.43;;;19.30;99.90;;;;;;5112560;28;20444;-70
2023/09/19 08:53:02;;;;;;;16.17;3.63;;;19.70;99.90;;;;;;5112712;28;20451;-70
2023/09/19 08:55:29;;;;;;;12.93;4.60;;;19.80;99.90;;;;;;5112550;28;20533;-70
2023/09/19 08:58:02;;;;;;;7.03;1.93;;;20.10;99.90;;;;;;5112340;28;20561;-70
2023/09/19 09:00:30;;;;;;;8.80;2.60;;;20.20;99.90;;;;;;5112636;28;20803;-70
2023/09/19 09:03:00;;;;;;;8.60;3.03;;;20.50;99.90;;;;;;5112376;28;20453;-71
2023/09/19 09:05:28;;;;;;;10.93;3.10;;;20.80;99.90;;;;;;5114675;28;20439;-70
2023/09/19 09:07:56;;;;;;;9.80;2.60;;;20.70;99.90;;;;;;5115947;28;20455;-70
2023/09/19 09:10:24;;;;;;;9.73;3.20;;;20.80;98.80;;;;;;5115820;28;20454;-70
2023/09/19 09:12:54;;;;;;;7.20;2.73;;;20.80;92.00;;;;;;5115480;28;20546;-71
2023/09/19 09:15:23;;;;;;;8.83;3.23;;;20.80;90.20;;;;;;5115911;28;20455;-70
2023/09/19 09:17:52;;;;;;;10.97;3.17;;;21.40;91.30;;;;;;5115895;28;20560;-69
2023/09/19 09:20:19;;;;;;;9.80;3.00;;;21.70;87.60;;;;;;5115625;28;20452;-70
2023/09/19 09:22:53;;;;;;;10.40;3.27;;;22.10;87.90;;;;;;5115738;28;20454;-71
2023/09/19 09:25:23;;;;;;;11.57;3.27;;;22.30;80.30;;;;;;5115790;28;20444;-70
2023/09/19 09:28:01;;;;;;;9.50;2.43;;;22.60;73.70;;;;;;5115940;28;20440;-68
2023/09/19 09:30:34;;;;;;;11.03;2.70;;;22.40;72.30;;;;;;5115030;28;20458;-69
2023/09/19 09:33:10;;;;;;;14.13;2.80;;;22.10;72.00;;;;;;5115650;28;20444;-68
2023/09/19 09:35:38;;;;;;;7.07;1.83;;;22.00;71.90;;;;;;5114813;28;20470;-70
2023/09/19 09:38:08;;;;;;;6.20;1.80;;;22.30;72.20;;;;;;5114408;28;20484;-70
2023/09/19 09:40:49;;;;;;;10.30;3.83;;;21.80;63.50;;;;;;5114901;28;20459;-70
2023/09/19 09:43:38;;;;;;;12.33;3.20;;;21.80;63.50;;;;;;5115183;28;20708;-70
2023/09/19 09:49:18;;;;;;;10.17;2.93;;;21.70;63.40;;;;;;5115041;28;20428;-69
2023/09/19 09:51:59;;;;;;;9.37;2.57;;;20.90;62.70;;;;;;5114746;28;20446;-70
2023/09/19 09:54:34;;;;;;;9.50;2.90;;;21.00;70.90;;;;;;5114666;28;20447;-71
2023/09/19 09:57:05;;;;;;;9.47;2.77;;;21.00;71.00;;;;;;5114909;28;20443;-70
2023/09/19 09:59:47;;;;;;;11.43;2.30;;;21.60;68.80;;;;;;5114690;28;20470;-70
2023/09/19 10:02:20;;;;;;;9.87;2.43;;;21.30;54.50;;;;;;5114726;28;20960;-70
2023/09/19 10:04:58;;;;;;;8.13;2.33;;;21.20;59.80;;;;;;5114417;28;20451;-70
2023/09/19 10:07:32;;;;;;;10.33;4.00;;;20.60;62.30;;;;;;5114828;28;20489;-71
2023/09/19 10:10:09;;;;;;;13.00;4.37;;;21.10;63.90;;;;;;5114096;28;20935;-70
2023/09/19 10:12:48;;;;;;;8.53;2.87;;;21.60;63.30;;;;;;5114484;28;20455;-69
2023/09/19 10:15:20;;;;;;;9.80;2.47;;;22.00;63.70;;;;;;5113929;28;20490;-69
2023/09/19 10:17:48;;;;;;;10.13;2.73;;;22.30;55.40;;;;;;5114460;28;20491;-68
2023/09/19 10:20:32;;;;;;;8.43;2.60;;;22.60;55.70;;;;;;5113989;28;20450;-71
2023/09/19 10:23:00;;;;;;;10.03;2.80;;;22.80;55.00;;;;;;5114603;28;20529;-70
2023/09/19 10:25:30;;;;;;;8.33;2.83;;;23.00;47.20;;;;;;5114406;28;20460;-70
2023/09/19 10:27:59;;;;;;;8.80;3.20;;;22.80;47.00;;;;;;5114396;28;20441;-69
2023/09/19 10:30:30;;;;;;;8.10;2.77;;;22.90;48.60;;;;;;5114622;28;20459;-70
2023/09/19 10:33:01;;;;;;;9.03;2.43;;;22.50;46.80;;;;;;5114541;28;20523;-69
2023/09/19 10:35:28;;;;;;;7.90;2.23;;;22.30;46.90;;;;;;5114489;28;20449;-69
2023/09/19 10:37:58;;;;;;;12.40;3.10;;;22.30;49.30;;;;;;5113215;28;20443;-69
2023/09/19 10:40:30;;;;;;;8.80;2.47;;;22.50;51.30;;;;;;5114097;28;20202;-69
2023/09/19 10:43:01;;;;;;;10.73;2.33;;;22.30;46.50;;;;;;5114405;28;20493;-68
2023/09/19 10:45:31;;;;;;;10.23;3.10;;;22.30;54.00;;;;;;5114259;28;20462;-68
2023/09/19 10:47:58;;;;;;;8.00;2.43;;;21.80;46.00;;;;;;5114284;28;20456;-68
2023/09/19 10:50:26;;;;;;;10.40;2.80;;;22.30;46.50;;;;;;5114177;28;20445;-69
2023/09/19 10:53:00;;;;;;;12.60;2.73;;;22.20;46.40;;;;;;5114034;28;20538;-69
2023/09/19 10:55:30;;;;;;;8.77;2.67;;;22.10;40.30;;;;;;5114086;28;20453;-70
2023/09/19 10:58:03;;;;;;;10.13;2.40;;;22.30;46.50;;;;;;5114048;28;20919;-69
2023/09/19 11:00:52;;;;;;;14.43;3.20;;;22.60;40.00;;;;;;5113756;28;20820;-68
2023/09/19 11:03:29;;;;;;;8.03;2.40;;;22.70;41.70;;;;;;5113761;28;20444;-69
2023/09/19 11:06:13;;;;;;;8.77;2.50;;;22.90;39.40;;;;;;5114231;28;20447;-70
2023/09/19 11:09:22;;;;;;;10.67;3.30;;;22.50;37.70;;;;;;5113796;28;20819;-69
2023/09/19 11:11:55;;;;;;;7.00;2.70;;;22.80;37.90;;;;;;5113616;28;20436;-69
2023/09/19 11:14:37;;;;;;;10.07;3.73;;;23.00;38.10;;;;;;5113935;28;20463;-70
2023/09/19 11:17:46;;;;;;;8.37;2.40;;;23.10;38.20;;;;;;5113911;28;20479;-69
2023/09/19 11:20:51;;;;;;;8.67;2.30;;;23.60;38.70;;;;;;5113191;28;20448;-70
2023/09/19 11:23:30;;;;;;;9.50;2.67;;;23.80;34.10;;;;;;5113329;28;20474;-70
2023/09/19 11:25:59;;;;;;;9.38;2.72;;;23.30;38.30;;;;;;5112637;28;20526;-69
2023/09/19 11:28:33;;;;;;;12.13;3.20;;;23.20;38.30;;;;;;5110909;28;20447;-69
2023/09/19 11:31:20;;;;;;;11.10;3.20;;;23.10;27.40;;;;;;5112979;28;20197;-69
2023/09/19 11:33:49;;;;;;;9.03;2.43;;;23.30;29.30;;;;;;5112625;28;20454;-69
2023/09/19 11:36:19;;;;;;;9.33;2.90;;;24.00;29.90;;;;;;5113250;28;20454;-69
2023/09/19 11:39:21;;;;;;;14.53;2.40;;;24.50;23.00;;;;;;5112609;28;20472;-69
2023/09/19 11:41:52;;;;;;;9.23;2.40;;;25.30;23.40;;;;;;5113448;28;20556;-68
2023/09/19 11:44:40;;;;;;;9.47;2.27;;;25.80;16.80;;;;;;5113250;28;20452;-69
2023/09/19 11:47:09;;;;;;;8.93;3.20;;;25.70;15.50;;;;;;5113378;28;20509;-69
2023/09/19 11:49:41;;;;;;;14.30;3.03;;;24.80;15.60;;;;;;5112928;28;20506;-69
2023/09/19 11:52:10;;;;;;;8.20;2.77;;;24.90;15.70;;;;;;5113033;28;20463;-70
2023/09/19 11:54:41;;;;;;;7.67;2.50;;;24.70;8.00;;;;;;5113436;28;20450;-70
2023/09/19 11:57:12;;;;;;;9.47;2.60;;;24.60;9.50;;;;;;5113232;28;20445;-69
2023/09/19 11:59:40;;;;;;;10.20;2.47;;;24.90;12.00;;;;;;5112948;28;20483;-69
2023/09/19 12:02:08;;;;;;;8.97;2.80;;;24.50;7.80;;;;;;5113134;28;20451;-70
2023/09/19 12:04:37;;;;;;;8.00;2.87;;;24.60;7.80;;;;;;5113039;28;20958;-68
2023/09/19 12:07:15;;;;;;;13.30;2.97;;;25.20;8.20;;;;;;5111935;28;20486;-68
2023/09/19 12:09:43;;;;;;;10.53;2.67;;;25.00;8.60;;;;;;5112621;28;20751;-68
2023/09/19 12:12:13;;;;;;;9.77;2.90;;;25.10;8.20;;;;;;5112917;28;20452;-68
2023/09/19 12:14:42;;;;;;;8.30;2.40;;;25.20;7.00;;;;;;5112875;28;20445;-69
2023/09/19 12:17:09;;;;;;;8.57;2.60;;;25.40;3.40;;;;;;5111109;28;20444;-68
2023/09/19 12:19:36;;;;;;;9.53;2.90;;;25.00;3.00;;;;;;5111452;28;20477;-70
2023/09/19 12:22:05;;;;;;;7.53;2.00;;;25.30;1.00;;;;;;5111588;28;20448;-70
2023/09/19 12:24:37;;;;;;;12.50;2.20;;;25.60;1.00;;;;;;5111701;28;20728;-68
2023/09/19 12:27:05;;;;;;;8.77;2.10;;;25.60;1.00;;;;;;5112267;28;20453;-69
2023/09/19 12:29:34;;;;;;;10.63;2.07;;;25.60;1.00;;;;;;5111712;28;20498;-70
2023/09/19 12:32:03;;;;;;;8.70;2.37;;;26.30;1.00;;;;;;5111721;28;20448;-70
2023/09/19 12:34:34;;;;;;;11.07;3.07;;;26.90;1.30;;;;;;5111569;28;20444;-70
2023/09/19 12:37:13;;;;;;;8.13;2.57;;;27.00;1.00;;;;;;5102933;28;20449;-70
2023/09/19 12:39:48;;;;;;;9.60;2.17;;;27.20;1.00;;;;;;5093786;28;20480;-68
2023/09/19 12:42:16;;;;;;;8.60;2.47;;;26.60;1.00;;;;;;5095940;28;21040;-68
2023/09/19 12:44:44;;;;;;;10.83;3.50;;;26.00;1.00;;;;;;5095341;28;20532;-69
2023/09/19 12:47:15;;;;;;;8.57;2.20;;;26.20;1.00;;;;;;5095390;28;20528;-68
2023/09/19 12:50:12;;;;;;;11.97;3.03;;;26.60;1.00;;;;;;5094845;28;20453;-69
2023/09/19 12:52:40;;;;;;;6.87;1.80;;;27.40;1.00;;;;;;5095552;28;20449;-69